SAS87F ENGM-EKCH
Flight info
| Callsign | SAS87F |
|---|---|
| Flight time | 0h 53m |
| Altitude | 37000 |
| Route | OKSAT L996 KELIN DCT TOPLA L996 ERNOV |
| Aircraft | A320/M-SDE3FGHIJ1RWXYZ/ALB1 |
Departure
| Time | 2026-05-07 13:14 |
|---|---|
| Airport | Oslo-Gardermoen International Airport (ENGM) |
Arrival
| Time | 2026-05-07 14:07 |
|---|---|
| Airport | Copenhagen Kastrup Airport (EKCH) |
| Time | Latitude | Longitude | Altitude | Speed | Heading |
|---|---|---|---|---|---|
| 2026-05-07 12:43 | 60.19564 | 11.10152 | 685 ft | 0 kts | 286° |
| 2026-05-07 13:03 | 60.19562 | 11.10162 | 685 ft | 4 kts | 286° |
| 2026-05-07 13:03 | 60.19555 | 11.10214 | 682 ft | 4 kts | 286° |
| 2026-05-07 13:03 | 60.19551 | 11.10241 | 682 ft | 1 kts | 286° |
| 2026-05-07 13:08 | 60.19551 | 11.10239 | 685 ft | 1 kts | 286° |
| 2026-05-07 13:08 | 60.19547 | 11.10230 | 679 ft | 1 kts | 230° |
| 2026-05-07 13:08 | 60.19544 | 11.10232 | 677 ft | 0 kts | 189° |
| 2026-05-07 13:09 | 60.19542 | 11.10237 | 677 ft | 0 kts | 154° |
| 2026-05-07 13:09 | 60.19539 | 11.10277 | 682 ft | 7 kts | 82° |
| 2026-05-07 13:09 | 60.19587 | 11.10357 | 684 ft | 11 kts | 34° |
| 2026-05-07 13:09 | 60.19667 | 11.10450 | 681 ft | 16 kts | 16° |
| 2026-05-07 13:10 | 60.19792 | 11.10521 | 681 ft | 22 kts | 15° |
| 2026-05-07 13:10 | 60.19838 | 11.10547 | 682 ft | 2 kts | 16° |
| 2026-05-07 13:10 | 60.19864 | 11.10561 | 684 ft | 5 kts | 16° |
| 2026-05-07 13:10 | 60.19905 | 11.10585 | 683 ft | 8 kts | 15° |
| 2026-05-07 13:11 | 60.19946 | 11.10693 | 685 ft | 12 kts | 89° |
| 2026-05-07 13:11 | 60.19921 | 11.10886 | 680 ft | 17 kts | 106° |
| 2026-05-07 13:11 | 60.19883 | 11.11153 | 683 ft | 23 kts | 106° |
| 2026-05-07 13:11 | 60.19843 | 11.11443 | 683 ft | 17 kts | 100° |
| 2026-05-07 13:12 | 60.19929 | 11.11574 | 683 ft | 19 kts | 15° |
| 2026-05-07 13:12 | 60.20072 | 11.11656 | 682 ft | 24 kts | 16° |
| 2026-05-07 13:12 | 60.20175 | 11.11776 | 684 ft | 18 kts | 75° |
| 2026-05-07 13:12 | 60.20142 | 11.12025 | 687 ft | 17 kts | 109° |
| 2026-05-07 13:13 | 60.20078 | 11.12204 | 686 ft | 16 kts | 162° |
| 2026-05-07 13:13 | 60.19978 | 11.12168 | 684 ft | 16 kts | 197° |
| 2026-05-07 13:13 | 60.19711 | 11.12012 | 684 ft | 81 kts | 196° |
| 2026-05-07 13:13 | 60.18916 | 11.11553 | 686 ft | 152 kts | 197° |
| 2026-05-07 13:14 | 60.17755 | 11.10898 | 935 ft | 188 kts | 196° |
| 2026-05-07 13:14 | 60.16438 | 11.10159 | 1494 ft | 204 kts | 197° |
| 2026-05-07 13:14 | 60.15000 | 11.09323 | 2129 ft | 227 kts | 195° |
| 2026-05-07 13:14 | 60.13401 | 11.09263 | 3142 ft | 238 kts | 163° |
| 2026-05-07 13:15 | 60.11937 | 11.11068 | 4054 ft | 259 kts | 136° |
| 2026-05-07 13:15 | 60.10664 | 11.13685 | 5275 ft | 265 kts | 134° |
| 2026-05-07 13:15 | 60.09394 | 11.16423 | 6369 ft | 273 kts | 133° |
| 2026-05-07 13:15 | 60.08099 | 11.19240 | 6782 ft | 276 kts | 133° |
| 2026-05-07 13:16 | 60.06799 | 11.22058 | 7008 ft | 276 kts | 133° |
| 2026-05-07 13:16 | 60.05494 | 11.24879 | 7234 ft | 277 kts | 133° |
| 2026-05-07 13:16 | 60.04183 | 11.27714 | 7467 ft | 278 kts | 133° |
| 2026-05-07 13:16 | 60.02866 | 11.30566 | 7703 ft | 280 kts | 133° |
| 2026-05-07 13:17 | 60.01541 | 11.33437 | 7938 ft | 282 kts | 133° |
| 2026-05-07 13:17 | 60.00210 | 11.36325 | 8172 ft | 283 kts | 133° |
| 2026-05-07 13:17 | 59.98872 | 11.39227 | 8410 ft | 284 kts | 133° |
| 2026-05-07 13:17 | 59.97528 | 11.42143 | 8650 ft | 286 kts | 133° |
| 2026-05-07 13:18 | 59.96177 | 11.45076 | 8884 ft | 288 kts | 133° |
| 2026-05-07 13:18 | 59.94803 | 11.48002 | 9123 ft | 290 kts | 137° |
| 2026-05-07 13:18 | 59.93121 | 11.50181 | 9374 ft | 290 kts | 159° |
| 2026-05-07 13:18 | 59.91244 | 11.51660 | 9616 ft | 291 kts | 161° |
| 2026-05-07 13:19 | 59.89351 | 11.53113 | 9870 ft | 292 kts | 161° |
| 2026-05-07 13:19 | 59.87460 | 11.54553 | 10228 ft | 303 kts | 161° |
| 2026-05-07 13:19 | 59.85420 | 11.56100 | 10858 ft | 321 kts | 161° |
| 2026-05-07 13:19 | 59.83309 | 11.57707 | 11767 ft | 328 kts | 161° |
| 2026-05-07 13:20 | 59.81165 | 11.59349 | 12762 ft | 333 kts | 162° |
| 2026-05-07 13:20 | 59.78993 | 11.61006 | 13744 ft | 337 kts | 162° |
| 2026-05-07 13:20 | 59.76788 | 11.62688 | 14604 ft | 342 kts | 162° |
| 2026-05-07 13:20 | 59.74552 | 11.64394 | 15426 ft | 347 kts | 163° |
| 2026-05-07 13:21 | 59.72284 | 11.66121 | 16244 ft | 352 kts | 163° |
| 2026-05-07 13:21 | 59.69980 | 11.67876 | 17068 ft | 357 kts | 163° |
| 2026-05-07 13:21 | 59.67641 | 11.69656 | 17891 ft | 363 kts | 164° |
| 2026-05-07 13:21 | 59.65263 | 11.71465 | 18652 ft | 369 kts | 164° |
| 2026-05-07 13:22 | 59.62852 | 11.73293 | 19369 ft | 373 kts | 164° |
| 2026-05-07 13:22 | 59.60412 | 11.75138 | 20123 ft | 378 kts | 164° |
| 2026-05-07 13:22 | 59.57938 | 11.77007 | 20856 ft | 383 kts | 165° |
| 2026-05-07 13:22 | 59.55429 | 11.78902 | 21562 ft | 388 kts | 165° |
| 2026-05-07 13:23 | 59.52890 | 11.80816 | 22267 ft | 393 kts | 165° |
| 2026-05-07 13:23 | 59.50318 | 11.82747 | 22970 ft | 398 kts | 165° |
| 2026-05-07 13:23 | 59.47710 | 11.84703 | 23670 ft | 404 kts | 165° |
| 2026-05-07 13:23 | 59.45071 | 11.86679 | 24260 ft | 408 kts | 165° |
| 2026-05-07 13:24 | 59.42397 | 11.88675 | 24855 ft | 413 kts | 165° |
| 2026-05-07 13:24 | 59.39693 | 11.90686 | 25435 ft | 418 kts | 165° |
| 2026-05-07 13:24 | 59.36956 | 11.92716 | 26011 ft | 423 kts | 165° |
| 2026-05-07 13:24 | 59.34159 | 11.94464 | 26564 ft | 421 kts | 174° |
| 2026-05-07 13:25 | 59.31279 | 11.95301 | 27088 ft | 417 kts | 183° |
| 2026-05-07 13:25 | 59.28396 | 11.95246 | 27649 ft | 415 kts | 190° |
| 2026-05-07 13:25 | 59.25503 | 11.94926 | 28204 ft | 418 kts | 190° |
| 2026-05-07 13:25 | 59.22585 | 11.94602 | 28721 ft | 422 kts | 190° |
| 2026-05-07 13:26 | 59.19640 | 11.94277 | 29237 ft | 426 kts | 190° |
| 2026-05-07 13:26 | 59.16708 | 11.93953 | 29741 ft | 430 kts | 190° |
| 2026-05-07 13:26 | 59.13710 | 11.93624 | 30238 ft | 434 kts | 190° |
| 2026-05-07 13:26 | 59.10685 | 11.93295 | 30679 ft | 437 kts | 190° |
| 2026-05-07 13:27 | 59.07635 | 11.92967 | 31138 ft | 441 kts | 190° |
| 2026-05-07 13:27 | 59.04562 | 11.92639 | 31561 ft | 443 kts | 189° |
| 2026-05-07 13:27 | 59.01471 | 11.92314 | 32023 ft | 446 kts | 189° |
| 2026-05-07 13:27 | 58.98371 | 11.91993 | 32659 ft | 445 kts | 189° |
| 2026-05-07 13:28 | 58.95285 | 11.91667 | 33320 ft | 444 kts | 189° |
| 2026-05-07 13:28 | 58.92202 | 11.91338 | 33972 ft | 443 kts | 189° |
| 2026-05-07 13:28 | 58.89128 | 11.91011 | 34524 ft | 442 kts | 189° |
| 2026-05-07 13:28 | 58.86061 | 11.90688 | 35059 ft | 441 kts | 189° |
| 2026-05-07 13:29 | 58.83005 | 11.90366 | 35602 ft | 439 kts | 188° |
| 2026-05-07 13:29 | 58.79937 | 11.90481 | 36151 ft | 444 kts | 179° |
| 2026-05-07 13:29 | 58.76873 | 11.91271 | 36704 ft | 443 kts | 177° |
| 2026-05-07 13:29 | 58.73818 | 11.92103 | 37011 ft | 443 kts | 176° |
| 2026-05-07 13:30 | 58.67778 | 11.93755 | 37096 ft | 434 kts | 176° |
| 2026-05-07 13:30 | 58.61815 | 11.95388 | 37095 ft | 432 kts | 177° |
| 2026-05-07 13:31 | 58.55865 | 11.96997 | 37096 ft | 432 kts | 177° |
| 2026-05-07 13:31 | 58.49916 | 11.98601 | 37095 ft | 432 kts | 176° |
| 2026-05-07 13:32 | 58.44971 | 11.99943 | 37065 ft | 432 kts | 176° |
| 2026-05-07 13:32 | 58.39021 | 12.01524 | 37078 ft | 432 kts | 176° |
| 2026-05-07 13:33 | 58.33071 | 12.03098 | 37084 ft | 432 kts | 176° |
| 2026-05-07 13:33 | 58.27116 | 12.04686 | 37084 ft | 432 kts | 176° |
| 2026-05-07 13:34 | 58.18485 | 12.06974 | 37098 ft | 432 kts | 176° |
| 2026-05-07 13:35 | 58.12532 | 12.08539 | 37111 ft | 432 kts | 176° |
| 2026-05-07 13:35 | 58.06578 | 12.10105 | 37113 ft | 432 kts | 176° |
| 2026-05-07 13:36 | 58.00624 | 12.11669 | 37120 ft | 432 kts | 176° |
| 2026-05-07 13:36 | 57.94713 | 12.13215 | 37116 ft | 432 kts | 176° |
| 2026-05-07 13:37 | 57.88758 | 12.14768 | 37087 ft | 432 kts | 176° |
| 2026-05-07 13:37 | 57.82809 | 12.16305 | 37107 ft | 432 kts | 176° |
| 2026-05-07 13:38 | 57.76860 | 12.17829 | 37120 ft | 432 kts | 176° |
| 2026-05-07 13:38 | 57.70911 | 12.19362 | 37087 ft | 432 kts | 176° |
| 2026-05-07 13:39 | 57.64963 | 12.20903 | 37107 ft | 432 kts | 176° |
| 2026-05-07 13:39 | 57.58996 | 12.22431 | 36850 ft | 434 kts | 176° |
| 2026-05-07 13:39 | 57.55964 | 12.23196 | 35566 ft | 446 kts | 176° |
| 2026-05-07 13:40 | 57.52903 | 12.23973 | 34856 ft | 437 kts | 175° |
| 2026-05-07 13:40 | 57.49980 | 12.24732 | 34690 ft | 414 kts | 176° |
| 2026-05-07 13:40 | 57.47169 | 12.25460 | 34225 ft | 403 kts | 176° |
| 2026-05-07 13:40 | 57.44381 | 12.26166 | 33705 ft | 406 kts | 176° |
| 2026-05-07 13:41 | 57.41578 | 12.26868 | 33208 ft | 406 kts | 176° |
| 2026-05-07 13:41 | 57.38777 | 12.27573 | 32709 ft | 406 kts | 176° |
| 2026-05-07 13:41 | 57.35977 | 12.28279 | 32219 ft | 406 kts | 176° |
| 2026-05-07 13:41 | 57.33180 | 12.28982 | 31735 ft | 405 kts | 176° |
| 2026-05-07 13:42 | 57.30389 | 12.29681 | 31258 ft | 405 kts | 175° |
| 2026-05-07 13:42 | 57.27601 | 12.30378 | 30790 ft | 404 kts | 175° |
| 2026-05-07 13:42 | 57.24820 | 12.31075 | 30337 ft | 403 kts | 175° |
| 2026-05-07 13:42 | 57.22048 | 12.31768 | 29821 ft | 402 kts | 175° |
| 2026-05-07 13:43 | 57.19291 | 12.32461 | 29383 ft | 398 kts | 175° |
| 2026-05-07 13:43 | 57.16554 | 12.33153 | 28945 ft | 396 kts | 175° |
| 2026-05-07 13:43 | 57.13834 | 12.33840 | 28538 ft | 393 kts | 175° |
| 2026-05-07 13:43 | 57.11133 | 12.34520 | 28129 ft | 390 kts | 175° |
| 2026-05-07 13:44 | 57.08486 | 12.35181 | 27727 ft | 388 kts | 175° |
| 2026-05-07 13:44 | 57.05817 | 12.35840 | 27303 ft | 386 kts | 175° |
| 2026-05-07 13:44 | 57.03164 | 12.36491 | 26888 ft | 383 kts | 175° |
| 2026-05-07 13:44 | 57.00529 | 12.37136 | 26463 ft | 381 kts | 175° |
| 2026-05-07 13:45 | 56.97911 | 12.37777 | 26045 ft | 378 kts | 175° |
| 2026-05-07 13:45 | 56.95308 | 12.38418 | 25608 ft | 377 kts | 175° |
| 2026-05-07 13:45 | 56.92717 | 12.39062 | 25169 ft | 375 kts | 175° |
| 2026-05-07 13:45 | 56.90139 | 12.39704 | 24719 ft | 373 kts | 175° |
| 2026-05-07 13:46 | 56.87575 | 12.40339 | 24260 ft | 371 kts | 175° |
| 2026-05-07 13:46 | 56.85024 | 12.40966 | 23813 ft | 369 kts | 175° |
| 2026-05-07 13:46 | 56.82484 | 12.41589 | 23302 ft | 367 kts | 175° |
| 2026-05-07 13:46 | 56.79971 | 12.42207 | 22844 ft | 362 kts | 175° |
| 2026-05-07 13:47 | 56.77487 | 12.42816 | 22390 ft | 358 kts | 175° |
| 2026-05-07 13:47 | 56.75029 | 12.43418 | 21937 ft | 354 kts | 175° |
| 2026-05-07 13:47 | 56.72599 | 12.44012 | 21497 ft | 351 kts | 175° |
| 2026-05-07 13:47 | 56.70192 | 12.44604 | 21060 ft | 347 kts | 175° |
| 2026-05-07 13:48 | 56.67809 | 12.45188 | 20626 ft | 344 kts | 175° |
| 2026-05-07 13:48 | 56.65445 | 12.45762 | 20191 ft | 342 kts | 175° |
| 2026-05-07 13:48 | 56.63098 | 12.46327 | 19762 ft | 339 kts | 175° |
| 2026-05-07 13:48 | 56.60766 | 12.46886 | 19329 ft | 337 kts | 175° |
| 2026-05-07 13:49 | 56.58448 | 12.47444 | 18900 ft | 335 kts | 175° |
| 2026-05-07 13:49 | 56.56144 | 12.48001 | 18480 ft | 333 kts | 175° |
| 2026-05-07 13:49 | 56.53851 | 12.48558 | 18013 ft | 331 kts | 174° |
| 2026-05-07 13:49 | 56.51578 | 12.49111 | 17585 ft | 328 kts | 174° |
| 2026-05-07 13:50 | 56.49329 | 12.49657 | 17166 ft | 325 kts | 174° |
| 2026-05-07 13:50 | 56.47101 | 12.50196 | 16749 ft | 322 kts | 174° |
| 2026-05-07 13:50 | 56.44895 | 12.50727 | 16344 ft | 319 kts | 174° |
| 2026-05-07 13:50 | 56.42703 | 12.51252 | 15944 ft | 316 kts | 174° |
| 2026-05-07 13:51 | 56.40529 | 12.51771 | 15541 ft | 314 kts | 174° |
| 2026-05-07 13:51 | 56.38366 | 12.52287 | 15144 ft | 313 kts | 174° |
| 2026-05-07 13:51 | 56.36215 | 12.52801 | 14747 ft | 311 kts | 174° |
| 2026-05-07 13:51 | 56.34073 | 12.53312 | 14350 ft | 310 kts | 174° |
| 2026-05-07 13:52 | 56.31941 | 12.53823 | 13958 ft | 308 kts | 174° |
| 2026-05-07 13:52 | 56.29817 | 12.54328 | 13524 ft | 307 kts | 174° |
| 2026-05-07 13:52 | 56.27710 | 12.54826 | 13132 ft | 304 kts | 174° |
| 2026-05-07 13:52 | 56.25618 | 12.55323 | 12744 ft | 302 kts | 173° |
| 2026-05-07 13:53 | 56.23543 | 12.55815 | 12357 ft | 300 kts | 173° |
| 2026-05-07 13:53 | 56.21509 | 12.56298 | 11974 ft | 298 kts | 173° |
| 2026-05-07 13:53 | 56.19463 | 12.56784 | 11588 ft | 296 kts | 173° |
| 2026-05-07 13:53 | 56.17424 | 12.57267 | 11207 ft | 295 kts | 173° |
| 2026-05-07 13:54 | 56.15381 | 12.57405 | 10934 ft | 292 kts | 180° |
| 2026-05-07 13:54 | 56.13336 | 12.57408 | 10746 ft | 295 kts | 180° |
| 2026-05-07 13:54 | 56.11280 | 12.57423 | 10540 ft | 296 kts | 179° |
| 2026-05-07 13:54 | 56.09223 | 12.57447 | 10327 ft | 295 kts | 179° |
| 2026-05-07 13:55 | 56.07175 | 12.57472 | 10118 ft | 294 kts | 179° |
| 2026-05-07 13:55 | 56.05132 | 12.57494 | 9902 ft | 292 kts | 179° |
| 2026-05-07 13:55 | 56.03098 | 12.57515 | 9683 ft | 293 kts | 179° |
| 2026-05-07 13:55 | 56.01059 | 12.57535 | 9472 ft | 292 kts | 179° |
| 2026-05-07 13:56 | 55.99037 | 12.57555 | 9266 ft | 290 kts | 179° |
| 2026-05-07 13:56 | 55.97019 | 12.57575 | 9056 ft | 289 kts | 179° |
| 2026-05-07 13:56 | 55.95016 | 12.57598 | 8848 ft | 287 kts | 179° |
| 2026-05-07 13:56 | 55.93015 | 12.57621 | 8650 ft | 287 kts | 179° |
| 2026-05-07 13:57 | 55.91019 | 12.57643 | 8444 ft | 286 kts | 179° |
| 2026-05-07 13:57 | 55.89025 | 12.57661 | 8242 ft | 287 kts | 179° |
| 2026-05-07 13:57 | 55.87040 | 12.57419 | 8037 ft | 287 kts | 190° |
| 2026-05-07 13:57 | 55.85132 | 12.56397 | 7837 ft | 287 kts | 200° |
| 2026-05-07 13:58 | 55.83271 | 12.55182 | 7635 ft | 283 kts | 200° |
| 2026-05-07 13:58 | 55.81425 | 12.53977 | 7433 ft | 282 kts | 200° |
| 2026-05-07 13:58 | 55.79592 | 12.52784 | 7237 ft | 279 kts | 200° |
| 2026-05-07 13:58 | 55.77770 | 12.51605 | 7035 ft | 278 kts | 200° |
| 2026-05-07 13:59 | 55.75948 | 12.50427 | 6840 ft | 278 kts | 200° |
| 2026-05-07 13:59 | 55.74136 | 12.49256 | 6643 ft | 277 kts | 200° |
| 2026-05-07 13:59 | 55.72331 | 12.48094 | 6438 ft | 276 kts | 200° |
| 2026-05-07 13:59 | 55.70528 | 12.46934 | 6240 ft | 275 kts | 200° |
| 2026-05-07 14:00 | 55.68732 | 12.45780 | 6041 ft | 275 kts | 200° |
| 2026-05-07 14:00 | 55.66934 | 12.44625 | 5764 ft | 274 kts | 200° |
| 2026-05-07 14:00 | 55.65141 | 12.43476 | 5551 ft | 274 kts | 200° |
| 2026-05-07 14:00 | 55.63347 | 12.42324 | 5359 ft | 275 kts | 200° |
| 2026-05-07 14:01 | 55.61554 | 12.41172 | 5163 ft | 274 kts | 201° |
| 2026-05-07 14:01 | 55.59844 | 12.39725 | 4976 ft | 272 kts | 214° |
| 2026-05-07 14:01 | 55.58371 | 12.37649 | 4826 ft | 271 kts | 223° |
| 2026-05-07 14:01 | 55.56953 | 12.35463 | 4674 ft | 270 kts | 223° |
| 2026-05-07 14:02 | 55.55526 | 12.33321 | 4523 ft | 267 kts | 216° |
| 2026-05-07 14:02 | 55.53823 | 12.32146 | 4213 ft | 264 kts | 184° |
| 2026-05-07 14:02 | 55.52052 | 12.32626 | 3993 ft | 256 kts | 158° |
| 2026-05-07 14:02 | 55.50456 | 12.33924 | 3763 ft | 250 kts | 144° |
| 2026-05-07 14:03 | 55.49214 | 12.35991 | 3534 ft | 243 kts | 128° |
| 2026-05-07 14:03 | 55.48125 | 12.38226 | 3296 ft | 237 kts | 128° |
| 2026-05-07 14:03 | 55.47410 | 12.40731 | 3067 ft | 226 kts | 94° |
| 2026-05-07 14:03 | 55.47759 | 12.43284 | 2844 ft | 213 kts | 51° |
| 2026-05-07 14:04 | 55.48908 | 12.44800 | 2609 ft | 205 kts | 26° |
| 2026-05-07 14:04 | 55.50051 | 12.46205 | 2472 ft | 198 kts | 39° |
| 2026-05-07 14:04 | 55.51090 | 12.47815 | 2196 ft | 199 kts | 40° |
| 2026-05-07 14:04 | 55.52133 | 12.49433 | 1925 ft | 201 kts | 40° |
| 2026-05-07 14:05 | 55.53189 | 12.51060 | 1647 ft | 201 kts | 40° |
| 2026-05-07 14:05 | 55.54227 | 12.52658 | 1392 ft | 193 kts | 40° |
| 2026-05-07 14:05 | 55.55189 | 12.54139 | 1122 ft | 175 kts | 40° |
| 2026-05-07 14:05 | 55.56071 | 12.55498 | 876 ft | 161 kts | 40° |
| 2026-05-07 14:06 | 55.56893 | 12.56768 | 654 ft | 154 kts | 40° |
| 2026-05-07 14:06 | 55.57639 | 12.57941 | 454 ft | 139 kts | 40° |
| 2026-05-07 14:06 | 55.58333 | 12.59001 | 247 ft | 128 kts | 39° |
| 2026-05-07 14:06 | 55.58975 | 12.59990 | 79 ft | 116 kts | 38° |
| 2026-05-07 14:07 | 55.59564 | 12.60878 | 22 ft | 103 kts | 39° |
| 2026-05-07 14:07 | 55.60033 | 12.61597 | 19 ft | 73 kts | 42° |
| 2026-05-07 14:07 | 55.60352 | 12.62083 | 17 ft | 33 kts | 42° |
| 2026-05-07 14:07 | 55.60507 | 12.62281 | 21 ft | 28 kts | 22° |
| 2026-05-07 14:08 | 55.60674 | 12.62356 | 18 ft | 23 kts | 14° |
| 2026-05-07 14:08 | 55.60830 | 12.62470 | 18 ft | 25 kts | 37° |
| 2026-05-07 14:08 | 55.60971 | 12.62683 | 18 ft | 28 kts | 40° |
| 2026-05-07 14:08 | 55.61120 | 12.62913 | 17 ft | 29 kts | 41° |
| 2026-05-07 14:09 | 55.61276 | 12.63157 | 18 ft | 30 kts | 41° |
| 2026-05-07 14:09 | 55.61419 | 12.63377 | 17 ft | 27 kts | 41° |
| 2026-05-07 14:09 | 55.61560 | 12.63596 | 17 ft | 28 kts | 41° |
| 2026-05-07 14:09 | 55.61689 | 12.63794 | 17 ft | 25 kts | 41° |
| 2026-05-07 14:10 | 55.61819 | 12.63995 | 18 ft | 24 kts | 41° |
| 2026-05-07 14:10 | 55.61940 | 12.64130 | 18 ft | 22 kts | 26° |
| 2026-05-07 14:10 | 55.62085 | 12.64251 | 18 ft | 24 kts | 25° |
| 2026-05-07 14:10 | 55.62248 | 12.64388 | 16 ft | 27 kts | 22° |
| 2026-05-07 14:11 | 55.62404 | 12.64457 | 17 ft | 22 kts | 15° |
| 2026-05-07 14:11 | 55.62531 | 12.64429 | 17 ft | 15 kts | 283° |
| 2026-05-07 14:11 | 55.62571 | 12.64277 | 17 ft | 12 kts | 300° |
| 2026-05-07 14:11 | 55.62626 | 12.64123 | 18 ft | 17 kts | 303° |
| 2026-05-07 14:12 | 55.62694 | 12.63938 | 17 ft | 12 kts | 303° |
| 2026-05-07 14:12 | 55.62757 | 12.63943 | 17 ft | 12 kts | 33° |
| 2026-05-07 14:12 | 55.62815 | 12.64025 | 17 ft | 3 kts | 50° |
| 2026-05-07 14:12 | 55.62833 | 12.64083 | 17 ft | 8 kts | 66° |
| 2026-05-07 14:13 | 55.62829 | 12.64168 | 18 ft | 8 kts | 117° |
| 2026-05-07 14:13 | 55.62809 | 12.64226 | 18 ft | 0 kts | 124° |
| 2026-05-07 14:13 | 55.62808 | 12.64228 | 18 ft | 0 kts | 125° |